Latest Weather Observations for Latrobe Valley

IDV60801

Issued at 4:22 pm EDT Tuesday 10 December 2019 (issued every 10 minutes, with the page automatically refreshed every 10 minutes)

About weather observations | Map of weather stations | Latest weather observations for VIC | Other Formats
Station Details ID: 085280 Name: LATROBE VALLEY AIRPORT Lat: -38.21 Lon: 146.47 Height: 55.7 m
Data from the previous 72 hours. | See also: Recent months at Latrobe Valley
Date/Time
EDT
Temp
°C
App
Temp
°C
Dew
Point
°C
Rel
Hum
%
Delta-T
°C
Wind Press
QNH
hPa
Press
MSL
hPa
Rain since
9am
mm
Dir  Spd
km/h
Gust
km/h
Spd
kts
Gust
kts
10/04:00pm 18.6 12.4 8.0 50 5.4 SW 30 39 16 21 1018.2 1018.1 0.0
10/03:30pm 18.8 12.3 9.0 53 5.1 SW 33 43 18 23 1018.2 1018.1 0.0
10/03:00pm 18.5 12.1 8.7 53 5.1 SW 32 41 17 22 1018.2 1018.1 0.0
10/02:30pm 18.8 12.8 10.1 57 4.7 SW 32 43 17 23 1018.3 1018.2 0.0
10/02:00pm 18.1 11.9 10.2 60 4.2 SW 33 46 18 25 1018.4 1018.3 0.0
10/01:30pm 18.5 13.5 10.8 61 4.2 SW 28 39 15 21 1018.7 1018.6 0.0
10/01:00pm 16.9 11.7 10.1 64 3.6 WSW 28 37 15 20 1018.8 1018.7 0.0
10/12:30pm 15.5 10.7 10.3 71 2.7 SW 26 35 14 19 1018.9 1018.8 0.0
10/12:00pm 16.0 11.1 11.2 73 2.6 SW 28 35 15 19 1018.6 1018.5 0.0
10/11:30am 16.1 11.2 11.3 73 2.6 SW 28 35 15 19 1018.4 1018.3 0.0
10/11:00am 16.4 11.3 10.7 69 3.0 SW 28 37 15 20 1018.3 1018.2 0.0
10/10:30am 16.6 11.6 10.9 69 3.1 SW 28 35 15 19 1018.1 1018.0 0.0
10/10:00am 16.3 10.9 11.0 71 2.8 SW 30 37 16 20 1017.8 1017.7 0.0
10/09:30am 16.1 11.2 11.3 73 2.6 SW 28 35 15 19 1017.7 1017.6 0.0
10/09:00am 16.1 10.9 11.5 74 2.5 SW 30 39 16 21 1017.6 1017.5 0.0
10/08:30am 16.2 10.7 10.7 70 2.9 WSW 30 39 16 21 1017.4 1017.3 0.0
10/08:00am 16.1 11.8 11.9 76 2.3 WSW 26 35 14 19 1017.0 1016.9 0.0
10/07:30am 14.8 9.4 11.0 78 2.0 WSW 30 37 16 20 1016.9 1016.8 0.0
10/07:28am 15.0 9.7 11.4 79 1.9 WSW 30 37 16 20 1016.9 1016.8 0.0
10/07:00am 14.7 9.9 11.7 82 1.6 WSW 28 39 15 21 1016.4 1016.3 0.0
10/06:30am 14.5 9.7 11.7 83 1.5 WSW 28 39 15 21 1016.3 1016.2 0.0
10/06:00am 14.7 9.6 11.8 83 1.6 WSW 30 37 16 20 1015.9 1015.7 0.0
10/05:30am 14.6 10.3 12.1 85 1.4 WSW 26 35 14 19 1015.5 1015.3 0.0
10/05:03am 14.4 10.2 12.3 87 1.1 WSW 26 33 14 18 1014.9 1014.7 0.0
10/05:00am 14.4 10.2 12.3 87 1.1 WSW 26 33 14 18 1014.7 1014.5 0.0
10/04:39am 14.4 10.9 12.3 87 1.1 WSW 22 28 12 15 1014.3 1014.1 0.0
10/04:30am 14.3 10.4 12.2 87 1.1 WSW 24 32 13 17 1014.3 1014.1 0.0
10/04:00am 14.4 9.8 12.3 87 1.1 WSW 28 37 15 20 1013.6 1013.4 0.0
10/03:30am 14.5 11.5 12.0 85 1.4 W 19 24 10 13 1014.1 1013.9 0.0
10/03:15am 14.7 12.8 11.8 83 1.6 WSW 13 19 7 10 1014.0 1013.8 0.0
10/03:00am 15.0 11.9 12.1 83 1.6 WSW 20 30 11 16 1014.8 1014.6 0.0
10/02:30am 15.0 11.1 12.1 83 1.6 W 24 32 13 17 1016.0 1015.8 0.0
10/02:00am 15.1 11.3 12.4 84 1.5 W 24 30 13 16 1015.7 1015.5 0.0
10/01:30am 15.2 11.4 12.5 84 1.5 W 24 30 13 16 1015.6 1015.4 0.0
10/01:00am 15.2 10.7 12.7 85 1.4 WSW 28 37 15 20 1015.2 1015.0 0.0
10/12:30am 15.1 9.8 12.6 85 1.4 W 32 41 17 22 1015.4 1015.2 0.0
10/12:00am 15.3 10.4 12.4 83 1.6 W 30 41 16 22 1015.7 1015.5 0.0
 
Date/Time
EDT
Temp
°C
App
Temp
°C
Dew
Point
°C
Rel
Hum
%
Delta-T
°C
Wind Press
QNH
hPa
Press
MSL
hPa
Rain since
9am
mm
Dir  Spd
km/h
Gust
km/h
Spd
kts
Gust
kts
09/11:30pm 16.3 10.8 12.3 77 2.2 W 33 46 18 25 1016.0 1015.8 0.0
09/11:00pm 17.6 11.3 11.2 66 3.5 W 35 50 19 27 1015.7 1015.5 0.0
09/10:30pm 18.6 12.1 10.4 59 4.4 WNW 35 50 19 27 1015.1 1014.9 0.0
09/10:23pm 18.9 13.3 10.2 57 4.7 W 30 50 16 27 1015.1 1014.9 0.0
09/10:00pm 20.9 15.1 7.9 43 6.8 W 28 37 15 20 1014.4 1014.2 0.0
09/09:40pm 22.2 15.9 7.6 39 7.6 SW 30 46 16 25 1013.0 1012.9 0.0
09/09:30pm 23.9 20.5 9.1 39 8.0 WSW 17 28 9 15 1012.6 1012.5 0.0
09/09:00pm 25.5 22.7 7.1 31 9.7 E 11 19 6 10 1010.7 1010.6 0.0
09/08:30pm 26.0 23.0 7.6 31 9.8 E 13 20 7 11 1010.8 1010.7 0.0
09/08:00pm 27.3 24.7 7.7 29 10.5 E 11 19 6 10 1011.0 1010.9 0.0
09/07:30pm 28.0 22.8 7.3 27 11.1 NE 24 33 13 18 1010.8 1010.7 0.0
09/07:04pm 29.1 26.8 10.3 31 10.7 ENE 13 43 7 23 1010.5 1010.4 0.0
09/07:00pm 30.3 30.1 13.6 36 10.0 E 7 9 4 5 1010.2 1010.1 0.0
09/06:30pm 32.1 32.7 11.8 29 11.9 CALM 0 6 0 3 1009.9 1009.8 0.0
09/06:00pm 32.5 33.0 15.1 35 10.8 N 6 7 3 4 1010.0 1009.9 0.0
09/05:30pm 34.8 33.5 9.3 21 14.6 WNW 6 9 3 5 1010.7 1010.6 0.0
09/05:00pm 35.4 33.8 11.7 23 14.1 WSW 11 17 6 9 1011.0 1010.9 0.0
09/04:30pm 35.4 33.1 9.0 20 15.1 WSW 11 19 6 10 1011.3 1011.2 0.0
09/04:00pm 34.9 32.3 10.7 23 14.2 WSW 15 22 8 12 1011.5 1011.4 0.0
09/03:30pm 35.0 31.5 10.1 22 14.4 WSW 19 26 10 14 1011.8 1011.7 0.0
09/03:00pm 35.0 32.2 11.4 24 14.0 WSW 17 28 9 15 1011.9 1011.8 0.0
09/02:30pm 34.2 32.0 10.7 24 13.7 W 13 19 7 10 1012.1 1012.0 0.0
09/02:00pm 33.1 31.3 12.1 27 12.5 W 13 19 7 10 1012.8 1012.7 0.0
09/01:30pm 32.0 30.2 13.2 31 11.3 SW 15 22 8 12 1013.3 1013.1 0.0
09/01:00pm 31.8 30.7 12.1 30 11.6 WSW 9 24 5 13 1013.7 1013.5 0.0
09/12:30pm 29.8 30.1 12.3 34 10.3 W 2 9 1 5 1013.9 1013.7 0.0
09/12:00pm 28.2 27.7 12.1 37 9.4 WSW 6 9 3 5 1014.2 1014.0 0.0
09/11:30am 26.5 26.3 11.8 40 8.4 ESE 4 9 2 5 1014.4 1014.2 0.0
09/11:00am 24.8 25.1 13.4 49 6.7 WNW 4 7 2 4 1015.0 1014.8 0.0
09/10:30am 22.8 23.0 11.8 50 6.2 W 2 6 1 3 1015.4 1015.2 0.0
09/10:00am 21.9 21.2 11.9 53 5.6 NE 7 13 4 7 1015.3 1015.1 0.0
09/09:30am 19.9 19.1 11.7 59 4.5 ENE 7 13 4 7 1015.5 1015.3 0.0
09/09:00am 18.7 17.8 12.5 67 3.5 ENE 9 13 5 7 1015.5 1015.3 0.0
09/08:30am 16.5 16.4 14.0 85 1.4 NE 7 11 4 6 1015.4 1015.2 0.0
09/08:00am 13.8 13.3 12.5 92 0.7 N 7 9 4 5 1015.5 1015.3 0.0
09/07:30am 12.3 12.7 11.2 93 0.6 CALM 0 6 0 3 1015.7 1015.5 0.0
09/07:00am 11.3 11.0 10.2 93 0.6 NNE 2 7 1 4 1015.3 1015.1 0.0
09/06:30am 10.4 10.3 9.3 93 0.5 CALM 0 0 0 0 1015.3 1015.1 0.0
09/06:20am 9.6 8.9 8.5 93 0.5 NE 2 6 1 3 1015.3 1015.1 0.0
09/06:00am 9.1 7.3 7.9 92 0.6 NE 7 7 4 4 1015.3 1015.1 0.0
09/05:30am 9.1 8.6 7.9 92 0.6 CALM 0 0 0 0 1015.7 1015.5 0.0
09/05:24am 9.2 8.7 8.0 92 0.6 CALM 0 0 0 0 1015.7 1015.5 0.0
09/05:00am 9.5 7.7 8.1 91 0.7 NE 7 9 4 5 1015.5 1015.3 0.0
09/04:30am 9.5 7.7 7.9 90 0.8 NNE 7 9 4 5 1015.8 1015.6 0.0
09/04:00am 12.0 10.5 10.4 90 0.8 ENE 9 13 5 7 1016.2 1016.1 0.0
09/03:30am 12.2 10.3 10.4 89 0.9 E 11 15 6 8 1016.5 1016.4 0.0
09/03:00am 12.2 10.3 10.4 89 0.9 ENE 11 17 6 9 1016.9 1016.8 0.0
09/02:30am 12.4 10.5 10.5 88 1.0 E 11 17 6 9 1017.4 1017.3 0.0
09/02:00am 12.5 10.2 10.6 88 1.0 E 13 19 7 10 1017.9 1017.8 0.0
09/01:30am 12.3 10.3 10.2 87 1.1 E 11 17 6 9 1018.5 1018.4 0.0
09/01:00am 12.3 10.3 10.2 87 1.1 E 11 17 6 9 1018.7 1018.6 0.0
09/12:30am 12.3 10.3 10.0 86 1.2 E 11 19 6 10 1019.0 1018.9 0.0
09/12:00am 12.3 9.9 9.9 85 1.2 E 13 17 7 9 1019.3 1019.2 0.0
 
Date/Time
EDT
Temp
°C
App
Temp
°C
Dew
Point
°C
Rel
Hum
%
Delta-T
°C
Wind Press
QNH
hPa
Press
MSL
hPa
Rain since
9am
mm
Dir  Spd
km/h
Gust
km/h
Spd
kts
Gust
kts
08/11:30pm 12.5 10.7 9.5 82 1.5 ENE 9 13 5 7 1019.6 1019.5 0.0
08/11:00pm 12.9 10.7 9.5 80 1.7 ENE 11 15 6 8 1019.8 1019.7 0.0
08/10:30pm 13.3 11.1 9.5 78 1.9 ENE 11 17 6 9 1020.1 1020.0 0.0
08/10:00pm 14.0 11.5 9.6 75 2.3 ENE 13 20 7 11 1020.1 1020.0 0.0
08/09:30pm 14.4 11.4 9.4 72 2.6 ENE 15 22 8 12 1019.9 1019.8 0.0
08/09:00pm 15.2 12.2 9.3 68 3.0 ENE 15 22 8 12 1019.5 1019.4 0.0
08/08:30pm 16.0 12.9 9.0 63 3.6 ENE 15 22 8 12 1019.3 1019.2 0.0
08/08:00pm 17.4 14.0 9.1 58 4.3 ENE 17 24 9 13 1019.3 1019.2 0.0
08/07:30pm 18.2 15.5 9.0 55 4.8 ENE 13 19 7 10 1018.9 1018.8 0.0
08/07:00pm 19.7 16.5 9.9 53 5.2 ENE 17 24 9 13 1018.3 1018.2 0.0
08/06:30pm 20.7 17.1 9.9 50 5.8 ENE 19 28 10 15 1018.0 1017.9 0.0
08/06:00pm 21.6 17.9 10.1 48 6.2 E 20 30 11 16 1017.6 1017.5 0.0
08/05:30pm 22.4 17.9 10.2 46 6.7 NE 24 37 13 20 1017.3 1017.2 0.0
08/05:00pm 24.0 20.3 10.3 42 7.6 ENE 20 30 11 16 1017.0 1016.9 0.0
08/04:30pm 24.8 21.1 9.5 38 8.4 NE 19 28 10 15 1017.3 1017.2 0.0
08/04:00pm 24.7 22.5 9.4 38 8.3 NE 11 20 6 11 1017.6 1017.5 0.0
08/03:30pm 24.5 22.7 7.2 33 9.1 NE 6 13 3 7 1017.6 1017.5 0.0
08/03:00pm 24.0 21.6 8.8 38 8.2 NE 11 17 6 9 1017.9 1017.8 0.0
08/02:30pm 23.2 20.4 6.9 35 8.4 NE 11 17 6 9 1018.1 1018.0 0.0
08/02:00pm 22.4 20.8 8.1 40 7.5 ENE 6 13 3 7 1018.5 1018.4 0.0
08/01:30pm 22.2 20.1 9.7 45 6.8 ENE 11 19 6 10 1018.6 1018.5 0.0
08/01:00pm 21.4 19.0 8.7 44 6.7 E 11 20 6 11 1018.9 1018.8 0.0
08/12:30pm 20.1 18.0 8.4 47 6.1 ENE 9 15 5 8 1019.1 1019.0 0.0
08/12:00pm 19.9 18.7 10.3 54 5.2 ENE 7 13 4 7 1019.4 1019.3 0.0
08/11:30am 18.6 17.2 9.7 56 4.7 ESE 7 15 4 8 1019.9 1019.8 0.0
08/11:00am 18.4 17.2 10.3 59 4.3 NNE 7 13 4 7 1020.2 1020.1 0.0
08/10:30am 17.5 16.1 9.4 59 4.2 ESE 7 11 4 6 1020.3 1020.2 0.0
08/10:00am 16.8 15.6 9.5 62 3.8 S 6 9 3 5 1020.1 1020.0 0.0
08/09:30am 15.4 14.0 8.9 65 3.3 SSW 6 9 3 5 1020.3 1020.2 0.0
08/09:00am 14.4 12.3 8.4 67 3.0 W 9 13 5 7 1020.6 1020.5 0.0
08/08:30am 15.3 13.9 9.4 68 3.0 SSW 7 13 4 7 1020.5 1020.4 0.0
08/08:00am 13.4 11.2 8.0 70 2.7 SSW 9 15 5 8 1020.4 1020.3 0.0
08/07:30am 13.3 11.3 8.6 73 2.4 SW 9 11 5 6 1020.1 1020.0 0.0
08/07:00am 12.8 10.7 8.3 74 2.2 WSW 9 13 5 7 1019.7 1019.6 0.0
08/06:30am 12.4 9.4 7.9 74 2.2 WSW 13 19 7 10 1019.5 1019.4 0.0
08/06:00am 12.1 9.6 8.2 77 1.9 WSW 11 13 6 7 1019.3 1019.2 0.0
08/05:30am 12.1 9.6 8.2 77 1.9 WSW 11 17 6 9 1019.2 1019.1 0.0
08/05:00am 12.2 9.0 8.3 77 1.9 WSW 15 20 8 11 1018.7 1018.6 0.0
08/04:30am 12.4 8.8 8.3 76 2.0 WSW 17 20 9 11 1018.8 1018.7 0.0
08/04:00am 12.5 8.3 8.2 75 2.1 WSW 20 26 11 14 1018.8 1018.7 0.0
08/03:30am 12.6 8.0 8.3 75 2.1 WSW 22 32 12 17 1018.7 1018.6 0.0
08/03:00am 12.5 7.6 8.4 76 2.0 WSW 24 32 13 17 1018.5 1018.4 0.0
08/02:30am 12.6 7.7 8.3 75 2.1 WSW 24 32 13 17 1018.4 1018.3 0.0
08/02:00am 12.3 8.7 8.4 77 1.9 WSW 17 20 9 11 1018.2 1018.1 0.0
08/01:30am 12.3 8.7 8.4 77 1.9 W 17 24 9 13 1018.3 1018.2 0.0
08/01:00am 11.9 6.9 8.2 78 1.8 WSW 24 30 13 16 1018.4 1018.3 0.0
08/12:30am 12.3 7.8 8.6 78 1.8 WSW 22 30 12 16 1018.5 1018.4 0.0
08/12:00am 12.3 8.2 8.6 78 1.8 WSW 20 28 11 15 1018.6 1018.5 0.0
 
Date/Time
EDT
Temp
°C
App
Temp
°C
Dew
Point
°C
Rel
Hum
%
Delta-T
°C
Wind Press
QNH
hPa
Press
MSL
hPa
Rain since
9am
mm
Dir  Spd
km/h
Gust
km/h
Spd
kts
Gust
kts
07/11:30pm 12.4 7.1 8.5 77 1.9 W 26 32 14 17 1018.5 1018.4 0.0
07/11:00pm 12.2 8.6 8.5 78 1.8 W 17 24 9 13 1018.9 1018.8 0.0
07/10:30pm 11.8 8.6 8.3 79 1.7 W 15 20 8 11 1018.9 1018.8 0.0
07/10:00pm 11.5 7.8 7.8 78 1.8 W 17 22 9 12 1018.8 1018.7 0.0
07/09:30pm 12.0 8.0 8.1 77 1.9 WSW 19 24 10 13 1018.7 1018.6 0.0
07/09:00pm 12.3 8.3 8.4 77 1.9 SW 19 28 10 15 1018.3 1018.2 0.0
07/08:30pm 13.1 7.7 8.2 72 2.4 SW 26 35 14 19 1018.0 1017.9 0.0
07/08:00pm 13.8 8.5 8.4 70 2.7 SW 26 35 14 19 1017.5 1017.4 0.0
07/07:30pm 14.7 8.8 8.9 68 3.0 SW 30 35 16 19 1017.1 1017.0 0.0
07/07:00pm 15.5 9.3 9.2 66 3.2 SW 32 41 17 22 1016.5 1016.4 0.0
07/06:30pm 16.4 10.1 9.6 64 3.6 SW 33 43 18 23 1016.2 1016.1 0.0
07/06:00pm 17.3 11.2 9.7 61 4.0 SW 32 41 17 22 1015.9 1015.7 0.0
07/05:30pm 18.1 12.9 10.2 60 4.2 SW 28 39 15 21 1015.5 1015.3 0.0
07/05:00pm 19.1 14.2 10.1 56 4.8 SW 26 37 14 20 1015.3 1015.1 0.0
07/04:30pm 18.7 13.6 9.2 54 5.0 SW 26 35 14 19 1015.3 1015.1 0.0

Other formats

Comma delimited format used in spreadsheet applications
http://www.bom.gov.au/fwo/IDV60801/IDV60801.94891.axf

JavaScript Object Notation format (JSON) in row-major order
http://www.bom.gov.au/fwo/IDV60801/IDV60801.94891.json

Data quality

Most of these data are generated automatically and are frequently updated. Quality checks on data are not normally performed. It is possible for incorrect values to appear. Refer to information at About Latest Weather Observations and please check the disclaimer before using these data.